createdAt,value
2023-05-26T00:04:24.193Z,4.13
2023-05-26T00:06:57.308Z,4.50
2023-05-26T00:09:41.176Z,4.40
2023-05-26T00:12:09.579Z,4.78
2023-05-26T00:14:43.917Z,4.05
2023-05-26T00:17:12.486Z,4.07
2023-05-26T00:19:40.504Z,4.53
2023-05-26T00:22:19.287Z,6.50
2023-05-26T00:25:12.823Z,4.35
2023-05-26T00:28:12.097Z,4.07
2023-05-26T00:34:13.312Z,5.32
2023-05-26T00:40:01.742Z,4.50
2023-05-26T00:42:31.136Z,4.65
2023-05-26T00:45:05.971Z,4.05
2023-05-26T00:47:40.865Z,4.10
2023-05-26T00:50:11.554Z,5.18
2023-05-26T00:55:44.274Z,4.82
2023-05-26T00:58:13.318Z,4.60
2023-05-26T01:00:48.958Z,4.32
2023-05-26T01:03:26.172Z,5.65
2023-05-26T01:05:58.885Z,4.82
2023-05-26T01:08:36.365Z,4.95
2023-05-26T01:11:24.341Z,5.07
2023-05-26T01:23:51.082Z,4.65
2023-05-26T01:26:45.705Z,4.85
2023-05-26T01:29:16.001Z,4.28
2023-05-26T01:32:00.484Z,4.03
2023-05-26T01:35:04.120Z,4.78
2023-05-26T01:37:58.311Z,4.78
2023-05-26T01:40:40.693Z,4.72
2023-05-26T01:46:33.369Z,4.68
2023-05-26T01:58:48.372Z,4.55
2023-05-26T02:04:00.790Z,4.10
2023-05-26T02:06:30.678Z,4.18
2023-05-26T02:09:15.230Z,4.07
2023-05-26T02:12:19.907Z,4.05
2023-05-26T02:14:48.141Z,4.00
2023-05-26T02:17:58.627Z,4.22
2023-05-26T02:20:33.495Z,4.93
2023-05-26T02:29:11.743Z,4.07
2023-05-26T02:31:54.176Z,4.85
2023-05-26T02:35:02.112Z,4.90
2023-05-26T02:37:33.404Z,4.03
2023-05-26T02:43:25.522Z,4.32
2023-05-26T02:51:57.492Z,4.18
2023-05-26T02:58:03.273Z,3.63
2023-05-26T03:06:38.921Z,4.40
2023-05-26T03:12:25.696Z,3.65
2023-05-26T03:18:32.490Z,3.58
2023-05-26T03:21:46.535Z,4.13
2023-05-26T03:24:21.927Z,4.70
2023-05-26T03:30:14.450Z,4.00
2023-05-26T03:41:59.446Z,4.18
2023-05-26T03:48:06.184Z,4.10
2023-05-26T03:50:38.893Z,3.88
2023-05-26T03:56:59.340Z,4.47
2023-05-26T04:06:17.451Z,4.65
2023-05-26T04:11:52.435Z,3.90
2023-05-26T04:14:41.546Z,3.83
2023-05-26T04:20:47.737Z,4.63
2023-05-26T04:23:47.347Z,4.35
2023-05-26T04:26:31.170Z,3.58
2023-05-26T04:29:16.526Z,5.28
2023-05-26T04:32:06.489Z,3.92
2023-05-26T04:34:55.080Z,3.92
2023-05-26T04:37:29.480Z,4.55
2023-05-26T04:40:37.229Z,6.47
2023-05-26T04:43:26.540Z,4.80
2023-05-26T04:45:59.985Z,3.78
2023-05-26T04:48:35.597Z,4.25
2023-05-26T04:51:16.315Z,4.82
2023-05-26T04:53:53.789Z,4.82
2023-05-26T04:56:40.946Z,4.20
2023-05-26T05:02:27.820Z,3.83
2023-05-26T05:05:13.704Z,3.85
2023-05-26T05:07:55.871Z,3.65
2023-05-26T05:16:52.797Z,4.57
2023-05-26T05:20:05.815Z,5.20
2023-05-26T05:22:45.126Z,4.40
2023-05-26T05:28:28.320Z,4.95
2023-05-26T05:31:16.566Z,5.55
2023-05-26T05:33:52.379Z,4.88
2023-05-26T05:36:25.411Z,4.05
2023-05-26T05:45:30.998Z,4.97
2023-05-26T05:51:15.821Z,5.85
2023-05-26T05:54:03.358Z,5.22
2023-05-26T06:02:56.922Z,5.60
2023-05-26T06:05:25.599Z,6.13
2023-05-26T06:08:36.037Z,5.47
2023-05-26T06:11:41.731Z,6.43
2023-05-26T06:14:30.213Z,5.82
2023-05-26T06:20:16.534Z,6.18
2023-05-26T06:22:48.899Z,5.05
2023-05-26T06:25:33.237Z,6.07
2023-05-26T06:28:14.613Z,6.65
2023-05-26T06:33:44.300Z,5.45
2023-05-26T06:36:23.391Z,6.70
2023-05-26T06:39:42.398Z,6.40
2023-05-26T06:42:27.731Z,5.78
2023-05-26T06:44:58.588Z,6.20
2023-05-26T06:47:27.830Z,5.53
2023-05-26T06:50:03.930Z,6.07
2023-05-26T06:55:51.554Z,6.85
2023-05-26T06:58:27.647Z,6.68
2023-05-26T07:01:15.478Z,5.80
2023-05-26T07:03:44.637Z,5.90
2023-05-26T07:06:14.273Z,4.65
2023-05-26T07:08:46.776Z,5.63
2023-05-26T07:11:30.852Z,5.70
2023-05-26T07:13:59.511Z,6.35
2023-05-26T07:16:33.976Z,6.68
2023-05-26T07:19:05.541Z,5.72
2023-05-26T07:22:09.193Z,6.70
2023-05-26T07:24:37.814Z,5.75
2023-05-26T07:27:21.773Z,5.88
2023-05-26T07:29:51.583Z,6.57
2023-05-26T07:32:27.939Z,7.28
2023-05-26T07:35:05.985Z,5.85
2023-05-26T07:37:42.965Z,5.95
2023-05-26T07:40:21.282Z,6.43
2023-05-26T07:42:56.390Z,6.32
2023-05-26T07:45:27.077Z,6.13
2023-05-26T07:48:09.034Z,5.43
2023-05-26T07:51:05.752Z,6.10
2023-05-26T07:53:39.179Z,5.30
2023-05-26T07:56:32.644Z,5.75
2023-05-26T07:59:07.626Z,5.57
2023-05-26T08:01:43.434Z,5.72
2023-05-26T08:04:12.973Z,5.82
2023-05-26T08:06:43.978Z,5.90
2023-05-26T08:09:13.608Z,6.07
2023-05-26T08:11:48.372Z,5.80
2023-05-26T08:14:16.588Z,5.78
2023-05-26T08:16:45.086Z,5.65
2023-05-26T08:19:15.615Z,4.85
2023-05-26T08:21:44.719Z,5.00
2023-05-26T08:24:19.499Z,5.15
2023-05-26T08:26:50.731Z,4.57
2023-05-26T08:32:01.436Z,4.35
2023-05-26T08:34:31.140Z,5.63
2023-05-26T08:37:09.637Z,5.05
2023-05-26T08:39:55.466Z,5.70
2023-05-26T08:42:33.115Z,5.25
2023-05-26T08:45:11.379Z,5.28
2023-05-26T08:47:42.182Z,5.55
2023-05-26T08:50:21.678Z,4.38
2023-05-26T08:53:05.986Z,5.13
2023-05-26T08:55:35.248Z,5.35
2023-05-26T08:58:13.833Z,5.20
2023-05-26T09:00:45.025Z,5.30
2023-05-26T09:03:16.359Z,5.25
2023-05-26T09:05:53.795Z,4.43
2023-05-26T09:08:31.252Z,4.82
2023-05-26T09:11:02.692Z,4.43
2023-05-26T09:13:31.359Z,4.95
2023-05-26T09:16:09.784Z,4.70
2023-05-26T09:19:13.477Z,4.28
2023-05-26T09:21:54.655Z,3.80
2023-05-26T09:27:06.270Z,3.28
2023-05-26T09:29:34.538Z,3.65
2023-05-26T09:32:04.999Z,3.75
2023-05-26T09:35:07.493Z,3.63
2023-05-26T09:37:40.283Z,3.67
2023-05-26T09:40:12.431Z,3.20
2023-05-26T09:42:58.853Z,3.60
2023-05-26T09:45:59.442Z,3.85
2023-05-26T09:48:35.574Z,3.70
2023-05-26T09:51:06.680Z,3.25
2023-05-26T09:56:19.807Z,3.35
2023-05-26T09:59:10.875Z,4.18
2023-05-26T10:01:46.013Z,3.22
2023-05-26T10:04:18.602Z,3.58
2023-05-26T10:06:59.574Z,3.40
2023-05-26T10:09:46.042Z,3.03
2023-05-26T10:12:19.433Z,2.83
2023-05-26T10:14:52.910Z,3.17
2023-05-26T10:17:26.493Z,3.50
2023-05-26T10:20:14.933Z,3.72
2023-05-26T10:23:03.671Z,7.03
2023-05-26T10:25:51.941Z,3.30
2023-05-26T10:28:41.362Z,3.78
2023-05-26T10:31:11.813Z,3.30
2023-05-26T10:33:49.421Z,3.85
2023-05-26T10:36:29.280Z,4.00
2023-05-26T10:39:04.094Z,3.80
2023-05-26T10:41:36.823Z,3.08
2023-05-26T10:44:08.621Z,3.10
2023-05-26T10:47:11.029Z,3.13
2023-05-26T10:49:39.483Z,3.35
2023-05-26T10:52:23.377Z,3.42
2023-05-26T10:54:53.729Z,3.67
2023-05-26T10:57:43.965Z,3.97
2023-05-26T11:00:39.194Z,3.23
2023-05-26T11:03:29.659Z,3.28
2023-05-26T11:06:09.685Z,3.50
2023-05-26T11:09:02.911Z,3.47
2023-05-26T11:11:41.598Z,2.80
2023-05-26T11:14:40.202Z,2.90
2023-05-26T11:17:27.831Z,3.13
2023-05-26T11:20:07.368Z,3.33
2023-05-26T11:22:38.878Z,3.00
2023-05-26T11:25:23.980Z,2.75
2023-05-26T11:27:59.239Z,3.50
2023-05-26T11:30:39.023Z,2.88
2023-05-26T11:33:23.986Z,3.30
2023-05-26T11:36:20.435Z,2.95
2023-05-26T11:38:51.442Z,3.20
2023-05-26T11:41:31.351Z,3.25
2023-05-26T11:47:17.343Z,3.10
2023-05-26T11:49:51.069Z,3.55
2023-05-26T11:52:47.279Z,3.80
2023-05-26T11:55:26.125Z,3.55
2023-05-26T11:57:56.562Z,3.35
2023-05-26T12:00:59.370Z,4.03
2023-05-26T12:03:40.951Z,3.40
2023-05-26T12:06:14.414Z,3.55
2023-05-26T12:08:46.217Z,3.22
2023-05-26T12:11:18.980Z,3.35
2023-05-26T12:14:11.058Z,3.20
2023-05-26T12:17:21.891Z,3.50
2023-05-26T12:20:00.673Z,3.50
2023-05-26T12:22:31.558Z,3.65
2023-05-26T12:27:54.965Z,4.28
2023-05-26T12:30:33.405Z,3.28
2023-05-26T12:33:08.951Z,3.95
2023-05-26T12:35:52.175Z,3.90
2023-05-26T12:38:24.517Z,3.42
2023-05-26T12:40:53.994Z,3.85
2023-05-26T12:43:24.514Z,3.30
2023-05-26T12:45:55.596Z,3.33
2023-05-26T12:48:32.372Z,3.45
2023-05-26T12:51:08.268Z,3.92
2023-05-26T12:53:40.452Z,3.63
2023-05-26T12:56:11.694Z,4.32
2023-05-26T12:58:48.580Z,3.75
2023-05-26T13:01:17.316Z,3.38
2023-05-26T13:03:53.826Z,3.53
2023-05-26T13:06:41.178Z,3.38
2023-05-26T13:09:34.597Z,4.10
2023-05-26T13:12:09.317Z,3.70
2023-05-26T13:15:15.566Z,3.47
2023-05-26T13:17:47.603Z,3.63
2023-05-26T13:20:25.634Z,3.97
2023-05-26T13:22:54.631Z,4.38
2023-05-26T13:25:29.879Z,4.25
2023-05-26T13:28:01.478Z,3.92
2023-05-26T13:30:30.050Z,3.70
2023-05-26T13:33:05.088Z,3.80
2023-05-26T13:35:34.092Z,4.35
2023-05-26T13:38:03.198Z,3.67
2023-05-26T13:40:53.615Z,3.47
2023-05-26T13:43:26.060Z,3.80
2023-05-26T13:46:01.670Z,3.83
2023-05-26T13:48:33.334Z,3.58
2023-05-26T13:51:06.022Z,4.78
2023-05-26T13:53:36.935Z,3.63
2023-05-26T13:56:27.275Z,3.63
2023-05-26T13:59:05.307Z,3.78
2023-05-26T14:01:52.817Z,3.70
2023-05-26T14:04:41.529Z,4.07
2023-05-26T14:07:16.145Z,3.70
2023-05-26T14:09:44.942Z,3.63
2023-05-26T14:12:15.304Z,3.50
2023-05-26T14:14:43.932Z,4.10
2023-05-26T14:17:18.381Z,3.40
2023-05-26T14:23:34.639Z,3.70
2023-05-26T14:26:08.332Z,3.40
2023-05-26T14:28:39.424Z,3.33
2023-05-26T14:31:07.834Z,4.20
2023-05-26T14:33:38.254Z,3.85
2023-05-26T14:36:28.184Z,3.70
2023-05-26T14:38:56.803Z,3.40
2023-05-26T14:41:48.512Z,3.88
2023-05-26T14:44:28.084Z,3.50
2023-05-26T14:47:00.726Z,3.00
2023-05-26T14:49:29.439Z,5.28
2023-05-26T14:52:04.352Z,5.32
2023-05-26T14:54:46.955Z,4.03
2023-05-26T14:57:29.204Z,3.80
2023-05-26T14:59:58.151Z,3.13
2023-05-26T15:02:27.198Z,3.33
2023-05-26T15:04:57.083Z,3.70
2023-05-26T15:07:39.999Z,3.40
2023-05-26T15:10:12.125Z,3.72
2023-05-26T15:12:43.059Z,5.43
2023-05-26T15:15:24.264Z,12.98
2023-05-26T15:18:00.131Z,13.15
2023-05-26T15:20:29.043Z,3.50
2023-05-26T15:23:00.732Z,3.95
2023-05-26T15:25:34.567Z,3.80
2023-05-26T15:28:08.650Z,4.57
2023-05-26T15:30:37.144Z,3.67
2023-05-26T15:33:08.137Z,3.83
2023-05-26T15:35:40.938Z,3.30
2023-05-26T15:38:13.825Z,3.75
2023-05-26T15:40:44.753Z,3.55
2023-05-26T15:43:17.271Z,4.22
2023-05-26T15:45:51.609Z,3.95
2023-05-26T15:48:23.062Z,3.70
2023-05-26T15:51:00.767Z,3.80
2023-05-26T15:53:31.326Z,3.70
2023-05-26T15:56:03.646Z,3.30
2023-05-26T15:58:42.484Z,3.40
2023-05-26T16:01:13.329Z,3.40
2023-05-26T16:04:03.750Z,3.33
2023-05-26T16:06:32.346Z,3.55
2023-05-26T16:09:21.765Z,3.70
2023-05-26T16:11:57.449Z,3.95
2023-05-26T16:14:35.229Z,2.95
2023-05-26T16:17:10.127Z,3.72
2023-05-26T16:19:44.416Z,3.42
2023-05-26T16:22:15.231Z,3.50
2023-05-26T16:24:45.460Z,3.65
2023-05-26T16:28:02.004Z,3.13
2023-05-26T16:30:32.125Z,3.22
2023-05-26T16:33:13.818Z,4.07
2023-05-26T16:39:06.445Z,3.53
2023-05-26T16:54:43.228Z,3.70
2023-05-26T17:22:27.258Z,3.33
2023-05-26T17:56:46.417Z,4.00
2023-05-26T17:59:53.422Z,3.83
2023-05-26T18:18:31.492Z,5.00
2023-05-26T18:34:35.056Z,3.85
2023-05-26T18:46:44.162Z,3.88
2023-05-26T18:49:43.739Z,3.72
2023-05-26T19:02:01.046Z,4.10
2023-05-26T19:04:59.535Z,3.83
2023-05-26T19:07:28.618Z,3.72
2023-05-26T19:10:29.795Z,3.20
2023-05-26T19:13:08.027Z,3.88
2023-05-26T19:15:44.260Z,3.85
2023-05-26T19:24:50.500Z,4.22
2023-05-26T19:30:43.226Z,4.32
2023-05-26T20:23:00.732Z,4.03
2023-05-26T20:25:37.412Z,4.13
2023-05-26T20:28:19.144Z,3.72
2023-05-26T20:31:05.172Z,3.63
2023-05-26T20:36:36.857Z,3.55
2023-05-26T20:42:28.772Z,3.95
2023-05-26T20:45:18.840Z,4.38
2023-05-26T20:51:06.314Z,3.92
2023-05-26T20:56:47.551Z,3.85
2023-05-26T21:02:29.256Z,4.07
2023-05-26T21:08:23.574Z,4.05
2023-05-26T21:30:35.176Z,4.43
2023-05-26T21:36:21.152Z,4.85
2023-05-26T21:42:08.173Z,5.15
2023-05-26T21:47:55.033Z,6.35
2023-05-26T21:53:41.948Z,4.20
2023-05-26T21:59:28.420Z,4.47
2023-05-26T22:05:19.488Z,4.78
2023-05-26T22:11:08.311Z,4.45
2023-05-26T22:16:55.178Z,5.57
2023-05-26T22:19:56.226Z,5.95
2023-05-26T22:25:39.433Z,4.72
2023-05-26T22:34:49.971Z,4.97
2023-05-26T22:40:33.902Z,4.57
2023-05-26T22:46:20.981Z,4.70
2023-05-26T22:52:08.029Z,4.95
2023-05-26T22:54:51.919Z,6.43
2023-05-26T23:00:34.481Z,4.65
2023-05-26T23:06:21.954Z,4.50
2023-05-26T23:12:10.416Z,4.53
2023-05-26T23:14:52.630Z,4.40
2023-05-26T23:20:39.703Z,4.82
2023-05-26T23:23:24.097Z,4.90
2023-05-26T23:35:05.779Z,4.93
2023-05-26T23:40:47.421Z,5.57
2023-05-26T23:46:30.973Z,4.78
2023-05-26T23:52:12.473Z,4.65
2023-05-26T23:54:52.255Z,4.43
2023-05-26T23:57:54.985Z,4.25
